createdAt,value
2018-07-24T00:00:30.075Z,28.60
2018-07-24T00:02:59.002Z,28.60
2018-07-24T00:05:27.902Z,28.60
2018-07-24T00:07:56.958Z,28.60
2018-07-24T00:10:25.829Z,28.70
2018-07-24T00:12:54.697Z,28.70
2018-07-24T00:15:23.550Z,28.70
2018-07-24T00:17:52.391Z,28.70
2018-07-24T00:20:21.296Z,28.70
2018-07-24T00:22:50.141Z,28.70
2018-07-24T00:25:19.369Z,28.70
2018-07-24T00:27:48.245Z,28.60
2018-07-24T00:30:17.585Z,28.60
2018-07-24T00:32:46.439Z,28.60
2018-07-24T00:35:15.301Z,28.50
2018-07-24T00:37:44.155Z,28.50
2018-07-24T00:40:13.031Z,28.60
2018-07-24T00:42:42.114Z,28.60
2018-07-24T00:45:10.960Z,28.60
2018-07-24T00:47:40.128Z,28.60
2018-07-24T00:50:08.964Z,28.50
2018-07-24T00:52:37.830Z,28.40
2018-07-24T00:55:07.211Z,28.40
2018-07-24T01:00:05.036Z,28.40
2018-07-24T01:02:34.182Z,28.30
2018-07-24T01:05:03.366Z,28.30
2018-07-24T01:07:35.522Z,28.30
2018-07-24T01:10:04.446Z,28.20
2018-07-24T01:12:33.320Z,28.20
2018-07-24T01:15:02.367Z,28.20
2018-07-24T01:17:31.202Z,28.20
2018-07-24T01:20:00.247Z,28.20
2018-07-24T01:22:29.512Z,28.10
2018-07-24T01:24:58.668Z,28.00
2018-07-24T01:27:27.550Z,28.00
2018-07-24T01:29:56.387Z,28.00
2018-07-24T01:32:25.484Z,28.00
2018-07-24T01:34:54.382Z,28.00
2018-07-24T01:37:23.230Z,28.00
2018-07-24T01:39:52.085Z,28.00
2018-07-24T01:42:21.224Z,28.00
2018-07-24T01:44:51.634Z,28.00
2018-07-24T01:47:20.527Z,28.00
2018-07-24T01:49:49.362Z,27.90
2018-07-24T01:52:18.250Z,27.90
2018-07-24T01:54:47.136Z,27.90
2018-07-24T01:57:15.979Z,27.90
2018-07-24T01:59:44.832Z,27.80
2018-07-24T02:02:13.714Z,27.80
2018-07-24T02:04:42.559Z,27.80
2018-07-24T02:07:11.403Z,27.80
2018-07-24T02:09:40.263Z,27.80
2018-07-24T02:12:09.126Z,27.90
2018-07-24T02:14:38.311Z,27.90
2018-07-24T02:17:07.744Z,27.90
2018-07-24T02:19:36.655Z,27.90
2018-07-24T02:22:05.628Z,27.90
2018-07-24T02:24:34.479Z,27.90
2018-07-24T02:27:03.335Z,27.80
2018-07-24T02:29:32.190Z,27.80
2018-07-24T02:32:01.127Z,27.70
2018-07-24T02:34:29.923Z,27.60
2018-07-24T02:36:58.772Z,27.60
2018-07-24T02:39:27.654Z,27.70
2018-07-24T02:41:56.509Z,27.70
2018-07-24T02:44:25.353Z,27.70
2018-07-24T02:46:54.209Z,27.70
2018-07-24T02:49:23.084Z,27.70
2018-07-24T02:51:52.206Z,27.70
2018-07-24T02:54:21.083Z,27.60
2018-07-24T02:56:50.483Z,27.60
2018-07-24T02:59:19.389Z,27.60
2018-07-24T03:01:48.515Z,27.50
2018-07-24T03:04:17.476Z,27.50
2018-07-24T03:06:46.409Z,27.50
2018-07-24T03:09:15.325Z,27.60
2018-07-24T03:11:44.183Z,27.60
2018-07-24T03:14:13.045Z,27.70
2018-07-24T03:16:41.909Z,27.80
2018-07-24T03:19:11.033Z,27.90
2018-07-24T03:21:40.011Z,27.90
2018-07-24T03:24:09.618Z,28.00
2018-07-24T03:26:38.463Z,28.00
2018-07-24T03:29:08.387Z,28.10
2018-07-24T03:31:37.227Z,28.10
2018-07-24T03:34:06.164Z,28.10
2018-07-24T03:36:35.375Z,28.10
2018-07-24T03:39:06.342Z,28.20
2018-07-24T03:41:35.502Z,28.20
2018-07-24T03:44:04.415Z,28.20
2018-07-24T03:46:33.563Z,28.20
2018-07-24T03:49:02.447Z,28.20
2018-07-24T03:51:31.771Z,28.20
2018-07-24T03:54:00.704Z,28.20
2018-07-24T03:56:29.848Z,28.30
2018-07-24T04:01:27.318Z,28.30
2018-07-24T04:03:56.460Z,28.30
2018-07-24T04:06:25.303Z,28.30
2018-07-24T04:08:54.213Z,28.30
2018-07-24T04:11:23.163Z,28.30
2018-07-24T04:16:27.543Z,28.30
2018-07-24T04:18:56.413Z,28.40
2018-07-24T04:21:25.276Z,28.40
2018-07-24T04:23:54.468Z,28.40
2018-07-24T04:26:23.562Z,28.40
2018-07-24T04:28:52.447Z,28.40
2018-07-24T04:31:21.687Z,28.40
2018-07-24T04:33:50.535Z,28.40
2018-07-24T04:36:19.367Z,28.50
2018-07-24T04:38:48.258Z,28.50
2018-07-24T04:43:45.962Z,28.50
2018-07-24T04:46:14.837Z,28.50
2018-07-24T04:48:44.015Z,28.50
2018-07-24T04:51:12.860Z,28.50
2018-07-24T04:53:41.719Z,28.50
2018-07-24T04:56:10.566Z,28.50
2018-07-24T04:58:39.438Z,28.50
2018-07-24T05:01:08.280Z,28.50
2018-07-24T05:03:37.466Z,28.50
2018-07-24T05:06:06.311Z,28.60
2018-07-24T05:08:35.180Z,28.60
2018-07-24T05:11:04.050Z,28.60
2018-07-24T05:13:33.198Z,28.60
2018-07-24T05:16:02.071Z,28.60
2018-07-24T05:18:31.187Z,28.60
2018-07-24T05:21:00.337Z,28.60
2018-07-24T05:23:29.514Z,28.60
2018-07-24T05:25:58.639Z,28.60
2018-07-24T05:28:27.494Z,28.70
2018-07-24T05:30:56.572Z,28.70
2018-07-24T05:33:25.788Z,28.60
2018-07-24T05:35:54.732Z,28.60
2018-07-24T05:38:23.596Z,28.50
2018-07-24T05:40:52.490Z,28.50
2018-07-24T05:43:21.579Z,28.50
2018-07-24T05:45:50.507Z,28.50
2018-07-24T05:48:19.363Z,28.50
2018-07-24T05:50:48.507Z,28.50
2018-07-24T05:53:18.106Z,28.60
2018-07-24T05:55:46.970Z,28.60
2018-07-24T05:58:15.846Z,28.60
2018-07-24T06:00:44.695Z,28.60
2018-07-24T06:03:15.404Z,28.60
2018-07-24T06:05:44.507Z,28.60
2018-07-24T06:08:13.691Z,28.60
2018-07-24T06:10:42.937Z,28.60
2018-07-24T06:13:12.238Z,28.60
2018-07-24T06:15:41.558Z,28.60
2018-07-24T06:18:11.165Z,28.60
2018-07-24T06:20:40.029Z,28.60
2018-07-24T06:23:09.181Z,28.50
2018-07-24T06:25:38.023Z,28.50
2018-07-24T06:28:07.440Z,28.50
2018-07-24T06:30:36.354Z,28.50
2018-07-24T06:33:05.264Z,28.50
2018-07-24T06:35:34.473Z,28.50
2018-07-24T06:38:03.317Z,28.60
2018-07-24T06:40:32.463Z,28.60
2018-07-24T06:43:01.348Z,28.70
2018-07-24T06:45:30.792Z,28.80
2018-07-24T06:47:59.903Z,28.80
2018-07-24T06:50:28.757Z,28.90
2018-07-24T06:52:57.889Z,29.00
2018-07-24T06:55:26.762Z,29.00
2018-07-24T06:57:56.391Z,29.10
2018-07-24T07:00:25.509Z,29.20
2018-07-24T07:02:54.499Z,29.20
2018-07-24T07:05:23.389Z,29.30
2018-07-24T07:07:52.249Z,29.30
2018-07-24T07:10:21.267Z,29.40
2018-07-24T07:12:50.415Z,29.40
2018-07-24T07:17:48.063Z,29.70
2018-07-24T07:20:17.051Z,29.80
2018-07-24T07:22:46.123Z,29.90
2018-07-24T07:25:14.966Z,30.10
2018-07-24T07:27:44.356Z,30.30
2018-07-24T07:30:13.235Z,30.40
2018-07-24T07:32:42.664Z,30.60
2018-07-24T07:35:11.559Z,30.80
2018-07-24T07:37:40.430Z,31.10
2018-07-24T07:40:09.274Z,31.30
2018-07-24T07:42:38.151Z,31.70
2018-07-24T07:45:07.239Z,32.10
2018-07-24T07:47:36.116Z,32.60
2018-07-24T07:50:05.090Z,33.00
2018-07-24T07:52:33.980Z,33.30
2018-07-24T07:55:02.847Z,33.80
2018-07-24T07:57:31.983Z,34.40
2018-07-24T08:00:00.843Z,34.90
2018-07-24T08:02:30.096Z,35.30
2018-07-24T08:04:59.251Z,35.50
2018-07-24T08:07:28.127Z,35.80
2018-07-24T08:09:57.035Z,36.00
2018-07-24T08:12:26.222Z,36.20
2018-07-24T08:14:55.025Z,36.30
2018-07-24T08:17:24.294Z,36.40
2018-07-24T08:19:53.206Z,36.30
2018-07-24T08:22:22.136Z,36.20
2018-07-24T08:24:51.256Z,36.50
2018-07-24T08:27:20.111Z,36.90
2018-07-24T08:29:49.266Z,37.00
2018-07-24T08:32:18.531Z,36.70
2018-07-24T08:34:47.387Z,36.10
2018-07-24T08:37:16.239Z,35.50
2018-07-24T08:39:45.347Z,35.20
2018-07-24T08:42:14.226Z,35.10
2018-07-24T08:44:43.200Z,35.00
2018-07-24T08:47:12.077Z,35.00
2018-07-24T08:49:44.555Z,35.00
2018-07-24T08:52:13.405Z,34.90
2018-07-24T08:54:42.704Z,34.90
2018-07-24T08:57:11.262Z,35.10
2018-07-24T08:59:40.120Z,35.30
2018-07-24T09:02:09.015Z,35.60
2018-07-24T09:04:37.881Z,36.00
2018-07-24T09:07:07.249Z,36.70
2018-07-24T09:09:36.437Z,37.40
2018-07-24T09:12:05.860Z,38.30
2018-07-24T09:14:34.851Z,39.20
2018-07-24T09:17:04.028Z,40.00
2018-07-24T09:19:33.113Z,40.80
2018-07-24T09:22:02.256Z,41.50
2018-07-24T09:24:32.195Z,42.10
2018-07-24T09:28:04.495Z,42.20
2018-07-24T09:30:33.720Z,42.40
2018-07-24T09:33:02.588Z,42.50
2018-07-24T09:35:31.692Z,42.40
2018-07-24T09:38:00.563Z,42.20
2018-07-24T09:40:29.523Z,41.90
2018-07-24T09:42:58.353Z,41.50
2018-07-24T09:45:27.251Z,41.00
2018-07-24T09:47:56.154Z,40.50
2018-07-24T09:50:25.211Z,40.10
2018-07-24T09:52:54.959Z,39.80
2018-07-24T09:55:24.485Z,39.60
2018-07-24T09:57:53.854Z,39.40
2018-07-24T10:00:28.223Z,39.30
2018-07-24T10:02:57.548Z,39.10
2018-07-24T10:05:26.739Z,39.00
2018-07-24T10:07:55.619Z,38.90
2018-07-24T10:10:24.620Z,38.90
2018-07-24T10:12:53.549Z,38.90
2018-07-24T10:15:22.747Z,39.00
2018-07-24T10:17:51.631Z,39.00
2018-07-24T10:20:20.540Z,39.10
2018-07-24T10:22:49.916Z,39.10
2018-07-24T10:25:19.084Z,39.10
2018-07-24T10:27:47.968Z,39.10
2018-07-24T10:30:17.141Z,39.10
2018-07-24T10:32:45.984Z,38.90
2018-07-24T10:35:15.476Z,38.70
2018-07-24T10:37:44.811Z,38.50
2018-07-24T10:40:13.731Z,38.30
2018-07-24T10:42:42.620Z,38.10
2018-07-24T10:45:12.055Z,38.00
2018-07-24T10:47:40.917Z,37.90
2018-07-24T10:50:09.995Z,38.00
2018-07-24T10:52:39.074Z,38.10
2018-07-24T10:55:07.954Z,38.30
2018-07-24T10:57:36.842Z,38.50
2018-07-24T11:00:06.669Z,38.60
2018-07-24T11:02:35.571Z,38.80
2018-07-24T11:05:04.501Z,39.00
2018-07-24T11:07:33.359Z,39.00
2018-07-24T11:10:02.451Z,39.10
2018-07-24T11:12:31.320Z,39.30
2018-07-24T11:15:00.406Z,39.40
2018-07-24T11:17:29.354Z,39.40
2018-07-24T11:19:58.220Z,39.40
2018-07-24T11:22:27.150Z,39.30
2018-07-24T11:24:56.039Z,39.10
2018-07-24T11:27:24.931Z,39.00
2018-07-24T11:32:22.652Z,38.90
2018-07-24T11:34:51.512Z,38.80
2018-07-24T11:37:20.450Z,38.90
2018-07-24T11:42:18.369Z,39.00
2018-07-24T11:44:47.408Z,38.90
2018-07-24T11:47:16.277Z,38.90
2018-07-24T11:49:46.280Z,38.80
2018-07-24T11:52:15.222Z,38.70
2018-07-24T11:54:44.164Z,38.60
2018-07-24T11:57:13.079Z,38.50
2018-07-24T11:59:42.267Z,38.40
2018-07-24T12:02:11.497Z,38.20
2018-07-24T12:04:40.510Z,38.10
2018-07-24T12:07:09.684Z,38.00
2018-07-24T12:09:38.576Z,37.90
2018-07-24T12:12:07.498Z,37.90
2018-07-24T12:14:36.452Z,37.90
2018-07-24T12:17:05.428Z,37.70
2018-07-24T12:19:34.426Z,37.60
2018-07-24T12:22:03.490Z,37.60
2018-07-24T12:24:32.473Z,37.50
2018-07-24T12:27:01.430Z,37.40
2018-07-24T12:29:30.248Z,37.30
2018-07-24T12:31:59.124Z,37.40
2018-07-24T12:34:28.002Z,37.50
2018-07-24T12:36:57.151Z,37.60
2018-07-24T12:39:25.993Z,37.70
2018-07-24T12:41:54.866Z,37.80
2018-07-24T12:44:23.759Z,37.90
2018-07-24T12:46:52.734Z,37.90
2018-07-24T12:49:22.519Z,37.90
2018-07-24T12:51:51.424Z,37.90
2018-07-24T12:54:20.291Z,37.90
2018-07-24T12:56:49.403Z,37.80
2018-07-24T12:59:18.272Z,37.70
2018-07-24T13:01:47.150Z,37.50
2018-07-24T13:04:16.076Z,37.30
2018-07-24T13:06:45.141Z,37.30
2018-07-24T13:09:14.041Z,37.30
2018-07-24T13:11:42.910Z,37.20
2018-07-24T13:14:11.794Z,37.20
2018-07-24T13:16:40.711Z,37.20
2018-07-24T13:19:09.824Z,37.20
2018-07-24T13:21:38.662Z,37.20
2018-07-24T13:24:07.586Z,37.10
2018-07-24T13:26:36.666Z,37.10
2018-07-24T13:29:05.502Z,37.00
2018-07-24T13:31:34.461Z,36.90
2018-07-24T13:34:03.343Z,36.90
2018-07-24T13:36:34.337Z,36.90
2018-07-24T13:39:03.538Z,36.80
2018-07-24T13:41:32.419Z,36.90
2018-07-24T13:44:01.307Z,36.90
2018-07-24T13:46:30.405Z,36.90
2018-07-24T13:48:59.275Z,36.90
2018-07-24T13:51:28.172Z,36.80
2018-07-24T13:53:57.067Z,36.70
2018-07-24T13:56:26.243Z,36.60
2018-07-24T13:58:55.346Z,36.50
2018-07-24T14:01:24.166Z,36.50
2018-07-24T14:03:53.106Z,36.50
2018-07-24T14:06:21.987Z,36.40
2018-07-24T14:08:50.871Z,36.30
2018-07-24T14:11:19.810Z,36.20
2018-07-24T14:13:48.731Z,36.20
2018-07-24T14:16:17.717Z,36.10
2018-07-24T14:18:46.816Z,36.00
2018-07-24T14:21:15.708Z,36.00
2018-07-24T14:23:44.683Z,36.00
2018-07-24T14:26:13.587Z,35.90
2018-07-24T14:28:42.515Z,36.00
2018-07-24T14:31:11.460Z,36.00
2018-07-24T14:33:40.917Z,36.00
2018-07-24T14:36:09.987Z,36.00
2018-07-24T14:38:38.878Z,36.00
2018-07-24T14:41:07.987Z,35.90
2018-07-24T14:43:36.880Z,35.80
2018-07-24T14:48:34.284Z,35.70
2018-07-24T14:51:03.241Z,35.70
2018-07-24T14:53:32.138Z,35.70
2018-07-24T14:56:01.024Z,35.60
2018-07-24T14:58:30.048Z,35.60
2018-07-24T15:00:58.967Z,35.70
2018-07-24T15:03:27.835Z,35.70
2018-07-24T15:05:56.745Z,35.60
2018-07-24T15:08:25.836Z,35.60
2018-07-24T15:10:54.707Z,35.60
2018-07-24T15:13:23.858Z,35.60
2018-07-24T15:15:52.711Z,35.60
2018-07-24T15:18:21.789Z,35.60
2018-07-24T15:20:52.883Z,35.50
2018-07-24T15:23:21.957Z,35.50
2018-07-24T15:25:50.961Z,35.50
2018-07-24T15:28:19.911Z,35.50
2018-07-24T15:30:48.840Z,35.40
2018-07-24T15:33:18.039Z,35.40
2018-07-24T15:35:46.907Z,35.40
2018-07-24T15:38:16.124Z,35.40
2018-07-24T15:40:45.206Z,35.50
2018-07-24T15:43:14.085Z,35.40
2018-07-24T15:45:43.018Z,35.40
2018-07-24T15:50:40.451Z,35.20
2018-07-24T15:53:09.616Z,35.20
2018-07-24T15:55:38.694Z,35.00
2018-07-24T15:58:07.839Z,35.00
2018-07-24T16:00:37.319Z,34.90
2018-07-24T16:03:06.191Z,34.80
2018-07-24T16:05:35.204Z,34.80
2018-07-24T16:08:04.226Z,34.70
2018-07-24T16:10:33.302Z,34.60
2018-07-24T16:13:02.172Z,34.50
2018-07-24T16:18:00.083Z,34.50
2018-07-24T16:20:29.195Z,34.40
2018-07-24T16:22:58.071Z,34.40
2018-07-24T16:25:27.136Z,34.40
2018-07-24T16:27:56.263Z,34.40
2018-07-24T16:30:25.120Z,34.30
2018-07-24T16:32:53.993Z,34.30
2018-07-24T16:35:22.851Z,34.30
2018-07-24T16:37:51.802Z,34.30
2018-07-24T16:40:20.688Z,34.30
2018-07-24T16:42:49.580Z,34.20
2018-07-24T16:45:18.500Z,34.20
2018-07-24T16:47:47.395Z,34.20
2018-07-24T16:50:16.268Z,34.20
2018-07-24T16:52:45.136Z,34.10
2018-07-24T16:55:14.041Z,34.10
2018-07-24T16:57:42.976Z,34.00
2018-07-24T17:00:11.905Z,34.00
2018-07-24T17:02:40.786Z,33.90
2018-07-24T17:05:09.635Z,33.90
2018-07-24T17:07:38.586Z,33.90
2018-07-24T17:10:07.460Z,33.90
2018-07-24T17:12:36.341Z,33.90
2018-07-24T17:17:34.400Z,33.80
2018-07-24T17:20:04.294Z,33.70
2018-07-24T17:22:33.272Z,33.70
2018-07-24T17:25:02.131Z,33.70
2018-07-24T17:27:31.134Z,33.60
2018-07-24T17:30:01.263Z,33.60
2018-07-24T17:32:30.389Z,33.60
2018-07-24T17:34:59.468Z,33.60
2018-07-24T17:37:28.340Z,33.50
2018-07-24T17:39:57.223Z,33.50
2018-07-24T17:42:26.520Z,33.50
2018-07-24T17:44:55.782Z,33.40
2018-07-24T17:47:25.101Z,33.40
2018-07-24T17:49:54.005Z,33.40
2018-07-24T17:52:23.201Z,33.40
2018-07-24T17:54:52.082Z,33.40
2018-07-24T17:57:21.483Z,33.30
2018-07-24T17:59:50.371Z,33.30
2018-07-24T18:02:19.579Z,33.30
2018-07-24T18:04:48.900Z,33.30
2018-07-24T18:07:27.626Z,33.30
2018-07-24T18:09:56.713Z,33.20
2018-07-24T18:12:25.573Z,33.30
2018-07-24T18:14:54.615Z,33.20
2018-07-24T18:17:23.891Z,33.20
2018-07-24T18:19:52.931Z,33.20
2018-07-24T18:22:21.861Z,33.10
2018-07-24T18:24:50.993Z,33.10
2018-07-24T18:27:19.915Z,33.00
2018-07-24T18:29:48.799Z,33.00
2018-07-24T18:32:17.744Z,33.00
2018-07-24T18:34:46.814Z,33.00
2018-07-24T18:37:17.061Z,32.90
2018-07-24T18:39:46.010Z,32.90
2018-07-24T18:42:16.055Z,32.90
2018-07-24T18:44:44.952Z,32.90
2018-07-24T18:47:13.903Z,32.80
2018-07-24T18:49:42.786Z,32.80
2018-07-24T18:52:12.012Z,32.70
2018-07-24T18:54:41.179Z,32.70
2018-07-24T18:57:10.795Z,32.60
2018-07-24T18:59:39.963Z,32.40
2018-07-24T19:02:09.238Z,32.30
2018-07-24T19:04:38.157Z,32.30
2018-07-24T19:07:07.179Z,32.20
2018-07-24T19:09:36.542Z,32.20
2018-07-24T19:12:05.481Z,32.20
2018-07-24T19:14:34.709Z,32.10
2018-07-24T19:17:03.599Z,32.10
2018-07-24T19:19:32.770Z,32.00
2018-07-24T19:22:01.960Z,32.00
2018-07-24T19:24:30.869Z,31.90
2018-07-24T19:26:59.755Z,31.90
2018-07-24T19:29:28.647Z,31.80
2018-07-24T19:31:57.898Z,31.70
2018-07-24T19:34:26.760Z,31.60
2018-07-24T19:36:55.638Z,31.50
2018-07-24T19:39:24.852Z,31.40
2018-07-24T19:44:22.341Z,31.10
2018-07-24T19:46:51.443Z,31.00
2018-07-24T19:49:20.374Z,30.80
2018-07-24T19:51:49.263Z,30.70
2018-07-24T19:54:18.385Z,30.60
2018-07-24T19:56:47.328Z,30.50
2018-07-24T19:59:16.202Z,30.30
2018-07-24T20:01:45.330Z,30.20
2018-07-24T20:04:14.787Z,30.20
2018-07-24T20:06:44.156Z,30.10
2018-07-24T20:09:13.102Z,30.00
2018-07-24T20:11:42.418Z,30.00
2018-07-24T20:14:11.396Z,30.00
2018-07-24T20:16:40.376Z,29.90
2018-07-24T20:19:11.692Z,29.80
2018-07-24T20:21:46.516Z,29.70
2018-07-24T20:24:15.439Z,29.70
2018-07-24T20:26:44.348Z,29.70
2018-07-24T20:29:13.435Z,29.70
2018-07-24T20:31:42.367Z,29.60
2018-07-24T20:34:11.446Z,29.50
2018-07-24T20:36:40.331Z,29.50
2018-07-24T20:39:11.107Z,29.40
2018-07-24T20:41:40.866Z,29.30
2018-07-24T20:44:10.643Z,29.20
2018-07-24T20:46:41.897Z,29.20
2018-07-24T20:49:11.002Z,29.10
2018-07-24T20:51:40.094Z,29.10
2018-07-24T20:54:08.949Z,29.00
2018-07-24T20:56:38.267Z,29.00
2018-07-24T20:59:07.278Z,29.00
2018-07-24T21:01:36.339Z,28.90
2018-07-24T21:04:05.408Z,28.80
2018-07-24T21:06:34.919Z,28.80
2018-07-24T21:09:06.926Z,28.80
2018-07-24T21:11:36.885Z,28.80
2018-07-24T21:14:06.097Z,28.70
2018-07-24T21:16:34.997Z,28.60
2018-07-24T21:19:04.083Z,28.60
2018-07-24T21:21:33.814Z,28.60
2018-07-24T21:24:04.426Z,28.60
2018-07-24T21:26:35.400Z,28.60
2018-07-24T21:29:04.365Z,28.60
2018-07-24T21:31:33.332Z,28.60
2018-07-24T21:34:02.247Z,28.60
2018-07-24T21:36:31.299Z,28.60
2018-07-24T21:39:00.320Z,28.60
2018-07-24T21:41:29.311Z,28.60
2018-07-24T21:43:58.221Z,28.50
2018-07-24T21:46:27.158Z,28.50
2018-07-24T21:48:56.365Z,28.60
2018-07-24T21:51:25.544Z,28.60
2018-07-24T21:53:54.486Z,28.50
2018-07-24T21:56:23.682Z,28.40
2018-07-24T21:58:52.650Z,28.40
2018-07-24T22:01:27.295Z,28.40
2018-07-24T22:03:57.520Z,28.30
2018-07-24T22:06:26.537Z,28.20
2018-07-24T22:08:55.474Z,28.10
2018-07-24T22:11:24.295Z,28.10
2018-07-24T22:13:53.172Z,28.10
2018-07-24T22:16:22.136Z,28.20
2018-07-24T22:18:51.084Z,28.10
2018-07-24T22:21:20.111Z,28.10
2018-07-24T22:23:49.291Z,28.00
2018-07-24T22:26:18.651Z,28.00
2018-07-24T22:28:47.531Z,28.00
2018-07-24T22:31:16.366Z,27.90
2018-07-24T22:33:45.557Z,27.90
2018-07-24T22:36:14.453Z,27.80
2018-07-24T22:38:44.137Z,27.70
2018-07-24T22:41:13.095Z,27.70
2018-07-24T22:43:42.024Z,27.70
2018-07-24T22:46:10.850Z,27.60
2018-07-24T22:48:39.930Z,27.60
2018-07-24T22:51:08.839Z,27.60
2018-07-24T22:53:37.754Z,27.60
2018-07-24T22:56:06.683Z,27.60
2018-07-24T22:58:35.662Z,27.60
2018-07-24T23:01:04.770Z,27.60
2018-07-24T23:03:34.884Z,27.60
2018-07-24T23:06:03.721Z,27.60
2018-07-24T23:08:32.563Z,27.70
2018-07-24T23:11:01.977Z,27.80
2018-07-24T23:13:30.820Z,28.00
2018-07-24T23:15:59.725Z,28.00
2018-07-24T23:18:28.843Z,28.10
2018-07-24T23:20:58.045Z,28.10
2018-07-24T23:23:27.447Z,28.20
2018-07-24T23:25:56.595Z,28.30
2018-07-24T23:28:25.699Z,28.30
2018-07-24T23:30:55.091Z,28.30
2018-07-24T23:33:24.260Z,28.40
2018-07-24T23:35:53.138Z,28.40
2018-07-24T23:38:22.275Z,28.40
2018-07-24T23:40:51.124Z,28.40
2018-07-24T23:43:19.974Z,28.50
2018-07-24T23:45:48.841Z,28.60
2018-07-24T23:48:17.728Z,28.60
2018-07-24T23:50:46.577Z,28.60
2018-07-24T23:53:15.767Z,28.50
2018-07-24T23:55:44.646Z,28.50
2018-07-24T23:58:13.804Z,28.50
